createdAt,value
2018-02-06T00:01:59.728Z,-3.00
2018-02-06T00:04:28.425Z,-3.10
2018-02-06T00:06:56.382Z,-3.20
2018-02-06T00:09:24.189Z,-2.90
2018-02-06T00:11:52.856Z,-2.60
2018-02-06T00:14:20.772Z,-2.70
2018-02-06T00:16:48.574Z,-2.50
2018-02-06T00:19:16.350Z,-2.50
2018-02-06T00:21:44.097Z,-2.50
2018-02-06T00:24:12.165Z,-2.50
2018-02-06T00:26:40.361Z,-2.40
2018-02-06T00:29:08.315Z,-2.30
2018-02-06T00:31:36.297Z,-2.20
2018-02-06T00:34:04.157Z,-2.20
2018-02-06T00:36:32.049Z,-2.10
2018-02-06T00:38:59.788Z,-2.10
2018-02-06T00:41:27.749Z,-2.10
2018-02-06T00:43:55.606Z,-2.10
2018-02-06T00:46:23.395Z,-2.00
2018-02-06T00:48:51.258Z,-1.90
2018-02-06T00:51:19.170Z,-1.90
2018-02-06T00:53:47.090Z,-1.90
2018-02-06T00:56:14.894Z,-1.90
2018-02-06T00:58:44.644Z,-1.90
2018-02-06T01:01:12.539Z,-1.90
2018-02-06T01:03:40.365Z,-1.90
2018-02-06T01:06:08.268Z,-1.80
2018-02-06T01:08:36.038Z,-1.90
2018-02-06T01:11:04.101Z,-1.90
2018-02-06T01:13:31.941Z,-1.90
2018-02-06T01:15:59.735Z,-1.80
2018-02-06T01:18:27.608Z,-1.80
2018-02-06T01:20:56.102Z,-1.90
2018-02-06T01:23:24.786Z,-1.80
2018-02-06T01:25:53.351Z,-1.80
2018-02-06T01:28:21.216Z,-1.90
2018-02-06T01:30:49.163Z,-1.90
2018-02-06T01:33:17.028Z,-1.90
2018-02-06T01:35:44.816Z,-1.80
2018-02-06T01:38:12.602Z,-1.90
2018-02-06T01:40:42.543Z,-1.80
2018-02-06T01:43:10.376Z,-1.90
2018-02-06T01:45:39.142Z,-1.90
2018-02-06T01:48:07.011Z,-1.90
2018-02-06T01:50:34.892Z,-1.90
2018-02-06T01:53:03.543Z,-1.90
2018-02-06T01:55:31.325Z,-1.90
2018-02-06T01:57:59.294Z,-1.90
2018-02-06T02:00:27.253Z,-1.90
2018-02-06T02:02:55.218Z,-1.80
2018-02-06T02:05:23.106Z,-1.80
2018-02-06T02:07:50.965Z,-1.80
2018-02-06T02:10:18.726Z,-1.90
2018-02-06T02:12:46.595Z,-1.90
2018-02-06T02:15:14.440Z,-1.90
2018-02-06T02:17:42.223Z,-2.00
2018-02-06T02:20:10.071Z,-2.00
2018-02-06T02:22:38.881Z,-2.00
2018-02-06T02:25:08.304Z,-2.10
2018-02-06T02:27:36.969Z,-2.00
2018-02-06T02:30:04.753Z,-2.10
2018-02-06T02:32:33.313Z,-2.10
2018-02-06T02:35:01.261Z,-2.10
2018-02-06T02:37:29.366Z,-2.10
2018-02-06T02:39:57.736Z,-2.20
2018-02-06T04:40:47.330Z,-2.30
2018-02-06T04:43:15.117Z,-2.40
2018-02-06T04:45:43.002Z,-2.40
2018-02-06T04:48:10.971Z,-2.30
2018-02-06T04:50:39.082Z,-2.30
2018-02-06T04:53:07.582Z,-2.30
2018-02-06T04:55:35.398Z,-2.30
2018-02-06T04:58:03.269Z,-2.30
2018-02-06T05:00:31.026Z,-2.30
2018-02-06T05:02:58.804Z,-2.30
2018-02-06T05:05:26.752Z,-2.50
2018-02-06T05:07:54.515Z,-2.60
2018-02-06T05:10:22.757Z,-2.60
2018-02-06T05:12:51.201Z,-2.70
2018-02-06T05:15:19.939Z,-2.60
2018-02-06T05:17:48.009Z,-2.60
2018-02-06T05:20:15.803Z,-2.60
2018-02-06T05:22:43.853Z,-2.70
2018-02-06T05:25:11.626Z,-2.70
2018-02-06T05:27:39.669Z,-2.80
2018-02-06T05:30:07.465Z,-2.80
2018-02-06T05:32:35.231Z,-2.90
2018-02-06T05:35:03.007Z,-2.90
2018-02-06T05:37:30.836Z,-2.90
2018-02-06T05:39:58.704Z,-3.00
2018-02-06T05:42:26.650Z,-3.00
2018-02-06T05:44:54.436Z,-3.00
2018-02-06T05:47:22.308Z,-3.00
2018-02-06T05:49:50.156Z,-3.10
2018-02-06T05:52:18.033Z,-3.10
2018-02-06T05:54:45.801Z,-3.20
2018-02-06T05:57:13.686Z,-3.20
2018-02-06T05:59:41.589Z,-3.30
2018-02-06T06:02:10.100Z,-3.30
2018-02-06T06:04:38.389Z,-3.30
2018-02-06T06:07:06.247Z,-3.30
2018-02-06T06:09:34.143Z,-3.30
2018-02-06T06:12:02.013Z,-3.30
2018-02-06T06:14:29.784Z,-3.40
2018-02-06T06:16:57.948Z,-3.40
2018-02-06T06:19:25.939Z,-3.50
2018-02-06T07:58:57.170Z,-2.30
2018-02-06T08:01:25.141Z,-2.30
2018-02-06T08:03:53.137Z,-2.30
2018-02-06T08:06:21.019Z,-2.40
2018-02-06T08:08:48.888Z,-2.40
2018-02-06T08:11:17.628Z,-2.30
2018-02-06T08:13:45.915Z,-2.40
2018-02-06T08:16:13.685Z,-2.40
2018-02-06T08:18:41.557Z,-2.30
2018-02-06T08:21:09.328Z,-2.20
2018-02-06T08:23:37.122Z,-2.10
2018-02-06T08:26:05.799Z,-1.70
2018-02-06T08:28:34.454Z,-1.60
2018-02-06T08:31:02.241Z,-1.60
2018-02-06T08:33:30.903Z,-1.30
2018-02-06T08:35:58.782Z,-1.30
2018-02-06T08:38:26.586Z,-1.20
2018-02-06T08:40:54.607Z,-1.10
2018-02-06T08:43:22.885Z,-0.80
2018-02-06T08:45:51.415Z,-0.70
2018-02-06T08:48:19.426Z,-0.70
2018-02-06T08:50:47.299Z,-0.90
2018-02-06T08:53:15.188Z,-0.60
2018-02-06T08:55:43.854Z,-0.30
2018-02-06T08:58:11.790Z,-0.30
2018-02-06T09:00:39.690Z,-0.30
2018-02-06T09:03:07.563Z,-0.20
2018-02-06T09:05:35.537Z,0.00
2018-02-06T09:08:03.382Z,0.30
2018-02-06T09:10:31.258Z,0.50
2018-02-06T09:12:59.207Z,0.40
2018-02-06T09:15:27.026Z,0.30
2018-02-06T09:17:55.775Z,0.70
2018-02-06T09:20:23.625Z,0.70
2018-02-06T09:22:51.488Z,0.80
2018-02-06T09:25:19.644Z,0.70
2018-02-06T09:27:47.452Z,1.10
2018-02-06T09:30:15.310Z,1.20
2018-02-06T09:32:43.161Z,1.40
2018-02-06T09:35:11.037Z,1.50
2018-02-06T09:37:38.799Z,1.60
2018-02-06T09:40:07.425Z,1.60
2018-02-06T09:42:36.081Z,2.00
2018-02-06T09:45:04.676Z,2.10
2018-02-06T09:47:32.607Z,2.10
2018-02-06T09:50:00.356Z,2.10
2018-02-06T09:52:28.092Z,2.10
2018-02-06T09:54:56.648Z,1.60
2018-02-06T09:57:24.509Z,1.60
2018-02-06T09:59:53.193Z,1.00
2018-02-06T10:02:20.987Z,1.00
2018-02-06T10:04:49.956Z,0.80
2018-02-06T10:07:17.913Z,0.70
2018-02-06T10:09:45.761Z,0.80
2018-02-06T10:12:13.554Z,0.90
2018-02-06T10:14:42.863Z,0.80
2018-02-06T10:17:10.709Z,0.80
2018-02-06T10:19:38.481Z,0.80
2018-02-06T10:22:07.167Z,1.50
2018-02-06T10:24:35.218Z,1.50
2018-02-06T10:27:03.001Z,1.60
2018-02-06T10:29:30.860Z,1.70
2018-02-06T10:31:58.635Z,1.70
2018-02-06T10:34:26.554Z,1.50
2018-02-06T10:36:54.478Z,1.60
2018-02-06T10:39:23.240Z,1.70
2018-02-06T10:41:51.644Z,1.60
2018-02-06T10:44:19.681Z,1.60
2018-02-06T10:46:47.562Z,1.90
2018-02-06T10:49:15.440Z,2.00
2018-02-06T10:51:43.394Z,2.00
2018-02-06T10:54:11.350Z,1.50
2018-02-06T10:56:41.190Z,1.60
2018-02-06T10:59:09.779Z,1.30
2018-02-06T11:01:37.633Z,1.30
2018-02-06T11:04:05.443Z,1.20
2018-02-06T11:06:33.341Z,1.40
2018-02-06T11:09:01.131Z,1.20
2018-02-06T11:11:29.003Z,1.20
2018-02-06T11:14:05.361Z,1.50
2018-02-06T11:16:33.713Z,1.40
2018-02-06T11:19:01.471Z,1.10
2018-02-06T11:21:29.278Z,0.80
2018-02-06T11:23:57.217Z,0.80
2018-02-06T11:26:25.186Z,0.70
2018-02-06T11:28:53.051Z,0.80
2018-02-06T11:31:20.968Z,1.00
2018-02-06T11:33:49.505Z,1.00
2018-02-06T11:36:17.484Z,1.00
2018-02-06T11:38:45.337Z,1.00
2018-02-06T11:41:13.409Z,1.10
2018-02-06T11:43:41.272Z,1.10
2018-02-06T11:46:09.430Z,1.20
2018-02-06T11:48:37.355Z,1.30
2018-02-06T11:51:06.013Z,1.10
2018-02-06T11:53:34.357Z,1.20
2018-02-06T11:56:02.272Z,1.30
2018-02-06T11:58:31.035Z,1.20
2018-02-06T12:01:00.667Z,1.40
2018-02-06T12:03:29.635Z,1.30
2018-02-06T12:06:02.805Z,1.40
2018-02-06T12:08:36.421Z,1.50
2018-02-06T12:11:05.442Z,1.50
2018-02-06T12:13:34.412Z,1.50
2018-02-06T12:16:03.606Z,1.70
2018-02-06T12:18:31.380Z,1.70
2018-02-06T12:20:59.307Z,1.90
2018-02-06T12:23:27.331Z,1.90
2018-02-06T12:25:55.487Z,1.80
2018-02-06T12:28:23.462Z,1.80
2018-02-06T12:30:51.350Z,1.80
2018-02-06T12:33:19.204Z,1.90
2018-02-06T12:35:47.081Z,2.00
2018-02-06T12:38:14.947Z,2.30
2018-02-06T12:40:42.999Z,2.10
2018-02-06T12:43:10.856Z,2.00
2018-02-06T12:45:38.697Z,2.10
2018-02-06T12:48:06.558Z,2.00
2018-02-06T12:50:34.293Z,1.90
2018-02-06T12:53:03.057Z,2.10
2018-02-06T12:55:30.928Z,2.10
2018-02-06T12:57:59.896Z,2.40
2018-02-06T13:00:27.721Z,2.40
2018-02-06T13:02:56.486Z,2.50
2018-02-06T13:05:25.157Z,2.30
2018-02-06T13:07:53.071Z,2.30
2018-02-06T13:10:21.378Z,2.60
2018-02-06T13:12:49.350Z,2.70
2018-02-06T13:15:17.233Z,2.30
2018-02-06T13:17:45.207Z,2.50
2018-02-06T13:20:13.069Z,2.50
2018-02-06T13:22:40.933Z,2.50
2018-02-06T13:25:08.803Z,2.70
2018-02-06T13:27:37.382Z,2.60
2018-02-06T13:30:05.346Z,2.40
2018-02-06T13:32:33.138Z,2.40
2018-02-06T13:35:00.986Z,2.60
2018-02-06T13:37:29.056Z,2.70
2018-02-06T13:39:57.036Z,2.80
2018-02-06T13:42:24.974Z,2.80
2018-02-06T13:44:52.810Z,2.90
2018-02-06T13:47:20.550Z,2.90
2018-02-06T13:49:49.187Z,3.00
2018-02-06T13:52:16.966Z,3.00
2018-02-06T13:54:45.023Z,3.10
2018-02-06T13:57:12.891Z,3.40
2018-02-06T13:59:40.760Z,3.60
2018-02-06T14:02:08.612Z,3.80
2018-02-06T14:04:36.485Z,3.70
2018-02-06T14:07:04.354Z,3.50
2018-02-06T14:09:32.183Z,3.50
2018-02-06T14:12:00.827Z,3.40
2018-02-06T14:14:28.691Z,3.40
2018-02-06T14:16:56.664Z,3.40
2018-02-06T14:19:24.504Z,3.40
2018-02-06T14:21:52.343Z,3.20
2018-02-06T14:24:20.491Z,3.30
2018-02-06T14:26:49.235Z,3.20
2018-02-06T14:29:17.107Z,3.20
2018-02-06T14:31:44.876Z,3.20
2018-02-06T14:34:12.767Z,3.20
2018-02-06T14:36:41.314Z,3.50
2018-02-06T14:39:09.215Z,3.40
2018-02-06T14:41:37.067Z,3.30
2018-02-06T14:44:05.034Z,3.60
2018-02-06T14:46:32.981Z,3.70
2018-02-06T14:49:00.755Z,3.50
2018-02-06T14:51:28.546Z,3.40
2018-02-06T14:53:57.210Z,2.90
2018-02-06T14:56:25.167Z,2.90
2018-02-06T14:58:52.900Z,2.70
2018-02-06T15:01:20.814Z,2.80
2018-02-06T15:03:49.581Z,2.70
2018-02-06T15:06:17.470Z,2.60
2018-02-06T15:08:45.417Z,2.40
2018-02-06T15:11:13.209Z,2.40
2018-02-06T15:13:41.153Z,2.40
2018-02-06T15:16:09.041Z,2.50
2018-02-06T15:18:36.900Z,2.30
2018-02-06T15:21:04.954Z,2.40
2018-02-06T15:23:32.734Z,2.30
2018-02-06T15:26:00.605Z,2.20
2018-02-06T15:28:28.467Z,2.00
2018-02-06T15:30:56.341Z,1.90
2018-02-06T15:33:24.111Z,1.80
2018-02-06T15:35:51.967Z,1.90
2018-02-06T15:38:19.735Z,1.90
2018-02-06T15:40:47.604Z,1.90
2018-02-06T15:43:15.617Z,1.90
2018-02-06T15:45:45.267Z,1.90
2018-02-06T15:48:13.021Z,1.80
2018-02-06T15:50:40.990Z,1.60
2018-02-06T15:53:08.957Z,1.50
2018-02-06T15:55:37.057Z,1.40
2018-02-06T15:58:05.015Z,1.30
2018-02-06T16:00:35.600Z,1.20
2018-02-06T16:03:03.498Z,1.10
2018-02-06T16:05:31.481Z,1.00
2018-02-06T16:07:59.258Z,0.90
2018-02-06T16:10:27.094Z,0.90
2018-02-06T16:12:54.886Z,0.80
2018-02-06T16:15:22.649Z,0.70
2018-02-06T16:17:50.593Z,0.70
2018-02-06T16:20:18.377Z,0.60
2018-02-06T16:22:46.281Z,0.60
2018-02-06T16:25:14.934Z,0.20
2018-02-06T16:27:42.799Z,0.20
2018-02-06T16:30:10.598Z,0.10
2018-02-06T16:32:38.487Z,0.10
2018-02-06T16:35:06.575Z,0.10
2018-02-06T16:37:34.443Z,0.00
2018-02-06T16:40:02.263Z,-0.20
2018-02-06T16:42:31.003Z,-0.30
2018-02-06T16:44:58.972Z,-0.30
2018-02-06T16:47:26.853Z,-0.40
2018-02-06T16:49:54.699Z,-0.50
2018-02-06T16:52:22.678Z,-0.50
2018-02-06T16:54:50.561Z,-0.50
2018-02-06T16:57:18.428Z,-0.60
2018-02-06T16:59:47.109Z,-0.50
2018-02-06T17:02:27.238Z,-0.60
2018-02-06T17:04:55.137Z,-0.50
2018-02-06T17:07:23.004Z,-0.50
2018-02-06T17:09:50.777Z,-0.30
2018-02-06T17:12:18.908Z,-0.30
2018-02-06T17:14:47.016Z,-0.30
2018-02-06T17:17:14.950Z,-0.40
2018-02-06T17:19:42.846Z,-0.50
2018-02-06T17:22:10.883Z,-0.70
2018-02-06T17:24:38.784Z,-0.50
2018-02-06T17:27:06.616Z,-0.30
2018-02-06T17:29:34.538Z,-0.40
2018-02-06T17:32:03.111Z,-0.70
2018-02-06T17:34:31.777Z,-0.70
2018-02-06T17:36:59.841Z,-0.70
2018-02-06T17:39:27.841Z,-0.70
2018-02-06T17:41:56.499Z,-0.90
2018-02-06T17:44:24.250Z,-0.90
2018-02-06T17:46:52.132Z,-0.90
2018-02-06T17:49:19.891Z,-0.90
2018-02-06T17:51:47.843Z,-0.90
2018-02-06T17:54:15.714Z,-1.00
2018-02-06T17:56:43.571Z,-1.20
2018-02-06T17:59:12.210Z,-1.30
2018-02-06T18:01:40.881Z,-1.20
2018-02-06T18:04:08.809Z,-1.20
2018-02-06T18:06:37.528Z,-1.40
2018-02-06T18:09:05.504Z,-1.40
2018-02-06T18:11:33.309Z,-1.30
2018-02-06T18:14:01.227Z,-1.50
2018-02-06T18:16:28.994Z,-1.60
2018-02-06T18:18:56.827Z,-1.60
2018-02-06T18:21:24.899Z,-1.60
2018-02-06T18:23:52.788Z,-1.50
2018-02-06T18:26:20.651Z,-1.40
2018-02-06T18:28:48.526Z,-1.50
2018-02-06T18:31:16.734Z,-1.60
2018-02-06T18:33:44.744Z,-1.70
2018-02-06T18:36:12.714Z,-1.50
2018-02-06T18:38:40.697Z,-1.40
2018-02-06T18:41:08.576Z,-1.50
2018-02-06T18:43:36.435Z,-1.50
2018-02-06T18:46:08.727Z,-1.70
2018-02-06T18:48:36.651Z,-1.80
2018-02-06T18:51:04.438Z,-1.70
2018-02-06T18:53:34.401Z,-1.80
2018-02-06T18:56:02.614Z,-1.80
2018-02-06T18:58:30.503Z,-1.70
2018-02-06T19:00:58.785Z,-1.80
2018-02-06T19:03:27.485Z,-2.00
2018-02-06T19:05:56.402Z,-2.00
2018-02-06T19:08:24.860Z,-2.00
2018-02-06T19:10:54.112Z,-1.70
2018-02-06T19:13:22.475Z,-1.80
2018-02-06T19:15:50.989Z,-1.80
2018-02-06T19:18:19.436Z,-1.80
2018-02-06T19:20:48.431Z,-1.90
2018-02-06T19:23:17.333Z,-2.10
2018-02-06T19:25:46.242Z,-2.10
2018-02-06T19:28:15.070Z,-2.10
2018-02-06T19:30:43.488Z,-2.00
2018-02-06T19:33:11.558Z,-1.90
2018-02-06T19:35:39.836Z,-2.00
2018-02-06T19:38:07.933Z,-2.00
2018-02-06T19:40:35.865Z,-1.90
2018-02-06T19:43:03.662Z,-1.80
2018-02-06T19:45:31.539Z,-1.80
2018-02-06T19:47:59.497Z,-2.00
2018-02-06T19:50:28.259Z,-2.20
2018-02-06T19:52:56.918Z,-2.20
2018-02-06T19:55:24.945Z,-2.20
2018-02-06T19:57:53.944Z,-2.30
2018-02-06T20:00:21.986Z,-2.30
2018-02-06T20:02:49.931Z,-2.20
2018-02-06T20:05:18.087Z,-2.30
2018-02-06T20:07:46.250Z,-2.40
2018-02-06T20:10:15.020Z,-2.40
2018-02-06T20:12:44.153Z,-2.40
2018-02-06T20:15:12.255Z,-2.40
2018-02-06T20:17:41.192Z,-2.20
2018-02-06T20:20:10.802Z,-2.00
2018-02-06T20:22:38.924Z,-2.00
2018-02-06T20:25:07.210Z,-2.00
2018-02-06T20:27:35.272Z,-2.00
2018-02-06T20:30:03.262Z,-2.00
2018-02-06T20:32:31.230Z,-2.00
2018-02-06T20:34:59.182Z,-2.10
2018-02-06T20:37:27.819Z,-2.00
2018-02-06T20:39:55.823Z,-2.00
2018-02-06T20:42:23.692Z,-1.90
2018-02-06T20:44:51.485Z,-2.00
2018-02-06T20:47:19.283Z,-2.10
2018-02-06T20:49:48.147Z,-2.30
2018-02-06T20:55:10.384Z,-2.20
2018-02-06T20:57:38.330Z,-2.20
2018-02-06T21:00:06.263Z,-2.10
2018-02-06T21:02:34.986Z,-2.10
2018-02-06T21:05:03.158Z,-2.10
2018-02-06T21:07:31.235Z,-2.10
2018-02-06T21:09:59.688Z,-2.00
2018-02-06T21:12:27.890Z,-2.00
2018-02-06T21:14:56.800Z,-2.00
2018-02-06T21:17:25.488Z,-1.80
2018-02-06T21:19:53.429Z,-1.80
2018-02-06T21:22:21.512Z,-1.70
2018-02-06T21:24:49.410Z,-1.70
2018-02-06T21:27:18.186Z,-1.70
2018-02-06T21:29:46.123Z,-1.80
2018-02-06T21:32:14.091Z,-1.80
2018-02-06T21:34:41.990Z,-1.70
2018-02-06T21:37:10.543Z,-1.60
2018-02-06T21:39:38.439Z,-1.60
2018-02-06T21:42:06.274Z,-1.70
2018-02-06T21:44:34.143Z,-1.70
2018-02-06T21:47:02.213Z,-1.80
2018-02-06T21:49:30.198Z,-1.80
2018-02-06T21:51:58.181Z,-1.80
2018-02-06T21:54:26.767Z,-1.80
2018-02-06T21:56:54.697Z,-1.80
2018-02-06T21:59:22.589Z,-1.90
2018-02-06T22:01:51.904Z,-2.00
2018-02-06T22:04:19.751Z,-1.90
2018-02-06T22:06:47.823Z,-1.90
2018-02-06T22:09:15.874Z,-1.90
2018-02-06T22:11:43.988Z,-1.80
2018-02-06T22:14:12.757Z,-2.00
2018-02-06T22:16:41.851Z,-2.00
2018-02-06T22:19:09.799Z,-2.00
2018-02-06T22:21:37.621Z,-1.90
2018-02-06T22:24:06.347Z,-2.00
2018-02-06T22:26:34.453Z,-2.00
2018-02-06T22:29:02.493Z,-2.10
2018-02-06T22:31:30.386Z,-2.00
2018-02-06T22:33:58.350Z,-1.90
2018-02-06T22:36:26.430Z,-2.10
2018-02-06T22:38:54.292Z,-2.20
2018-02-06T22:41:22.204Z,-2.30
2018-02-06T22:43:50.230Z,-2.20
2018-02-06T22:46:18.026Z,-2.30
2018-02-06T22:48:46.775Z,-2.30
2018-02-06T22:51:15.466Z,-2.30
2018-02-06T22:53:43.336Z,-2.30
2018-02-06T22:56:11.614Z,-2.30
2018-02-06T22:58:39.483Z,-2.20
2018-02-06T23:01:07.343Z,-2.20
2018-02-06T23:03:35.205Z,-2.20
2018-02-06T23:06:03.865Z,-2.20
2018-02-06T23:08:31.763Z,-2.30
2018-02-06T23:10:59.823Z,-2.10
2018-02-06T23:13:27.770Z,-1.90
2018-02-06T23:15:56.054Z,-1.80
2018-02-06T23:18:24.026Z,-1.80
2018-02-06T23:20:51.981Z,-1.80
2018-02-06T23:23:19.949Z,-1.70
2018-02-06T23:25:48.842Z,-1.70
2018-02-06T23:28:16.736Z,-1.60
2018-02-06T23:30:44.676Z,-1.60
2018-02-06T23:33:12.647Z,-1.50
2018-02-06T23:35:41.146Z,-1.50
2018-02-06T23:38:09.309Z,-1.50
2018-02-06T23:40:37.367Z,-1.70
2018-02-06T23:43:05.276Z,-1.90
2018-02-06T23:45:33.132Z,-1.90
2018-02-06T23:48:01.073Z,-1.90
2018-02-06T23:50:28.984Z,-1.80
2018-02-06T23:52:59.056Z,-1.90
2018-02-06T23:55:27.251Z,-1.90
2018-02-06T23:57:55.204Z,-1.70
